Time;durP1;ratioP1;P1;durP2;ratioP2;P2;SDS_P1;SDS_P2;PMS_P1;PMS_P2;Temp;Humidity;BMP_temperature;BMP_pressure;BME280_temperature;BME280_humidity;BME280_pressure;Samples;Min_cycle;Max_cycle;Signal;HPM_P1;HPM_P2
2022/06/30 00:00:44;;;;;;;3.05;2.80;;;23.00;52.00;;;;;;4913347;29;20280;-45
2022/06/30 00:03:15;;;;;;;3.92;3.63;;;23.00;52.30;;;;;;4916555;29;20075;-47
2022/06/30 00:05:42;;;;;;;4.32;3.17;;;22.90;52.30;;;;;;4916949;29;20052;-46
2022/06/30 00:08:09;;;;;;;4.05;3.13;;;22.90;52.50;;;;;;4910684;29;20044;-46
2022/06/30 00:10:35;;;;;;;4.80;3.42;;;22.80;52.50;;;;;;4915697;29;20614;-46
2022/06/30 00:13:02;;;;;;;3.38;3.08;;;22.80;52.60;;;;;;4917296;29;20100;-45
2022/06/30 00:15:29;;;;;;;3.80;3.50;;;22.80;52.80;;;;;;4913979;29;20692;-45
2022/06/30 00:17:56;;;;;;;4.40;3.70;;;22.70;52.80;;;;;;4913479;29;20044;-47
2022/06/30 00:20:24;;;;;;;4.97;3.55;;;22.70;52.80;;;;;;4916362;29;20044;-46
2022/06/30 00:22:51;;;;;;;3.78;3.05;;;22.70;52.60;;;;;;4916749;29;20708;-45
2022/06/30 00:25:18;;;;;;;4.88;3.13;;;22.60;52.60;;;;;;4931606;23;20052;-52
2022/06/30 00:27:49;;;;;;;4.57;3.40;;;22.60;52.70;;;;;;4907298;29;20044;-51
2022/06/30 00:30:19;;;;;;;5.32;3.40;;;22.50;52.70;;;;;;4914457;29;20044;-50
2022/06/30 00:32:46;;;;;;;4.07;3.40;;;22.50;53.40;;;;;;4914312;29;20051;-49
2022/06/30 00:35:14;;;;;;;3.47;3.00;;;22.50;52.80;;;;;;4909942;29;20055;-47
2022/06/30 00:37:40;;;;;;;3.45;3.17;;;22.40;53.00;;;;;;4913580;29;20044;-51
2022/06/30 00:40:08;;;;;;;7.35;5.65;;;22.40;53.10;;;;;;4896100;29;20450;-50
2022/06/30 00:42:34;;;;;;;4.45;3.03;;;22.30;53.30;;;;;;4902557;29;20036;-47
2022/06/30 00:45:04;;;;;;;4.30;3.80;;;22.30;53.20;;;;;;4910213;29;20048;-49
2022/06/30 00:47:35;;;;;;;4.07;3.78;;;22.20;53.30;;;;;;4913327;29;20043;-50
2022/06/30 00:50:09;;;;;;;3.90;3.60;;;22.20;53.40;;;;;;4914996;29;20103;-47
2022/06/30 00:52:40;;;;;;;6.85;3.65;;;22.20;53.60;;;;;;4913863;29;20040;-47
2022/06/30 00:55:07;;;;;;;4.15;3.40;;;22.20;53.90;;;;;;4908201;29;20040;-47
2022/06/30 00:57:37;;;;;;;3.53;3.22;;;22.10;53.60;;;;;;4913941;29;20449;-48
2022/06/30 01:00:07;;;;;;;4.07;3.47;;;22.10;53.70;;;;;;4912726;29;20048;-47
2022/06/30 01:02:34;;;;;;;4.72;3.97;;;22.10;53.90;;;;;;4916460;29;20115;-50
2022/06/30 01:05:04;;;;;;;4.25;3.63;;;22.00;54.00;;;;;;4908306;29;20037;-51
2022/06/30 01:07:34;;;;;;;4.28;3.85;;;22.00;54.10;;;;;;4913715;29;20040;-49
2022/06/30 01:12:50;;;;;;;3.67;3.38;;;21.90;54.50;;;;;;4913497;29;20084;-49
2022/06/30 01:15:22;;;;;;;4.22;3.83;;;21.90;54.20;;;;;;4910891;29;20646;-48
2022/06/30 01:17:53;;;;;;;5.15;3.45;;;21.90;54.50;;;;;;4913812;29;20048;-47
2022/06/30 01:20:29;;;;;;;4.60;4.18;;;21.90;54.70;;;;;;4895096;29;20520;-47
2022/06/30 01:23:00;;;;;;;5.30;4.20;;;21.90;54.60;;;;;;4900378;29;20047;-49
2022/06/30 01:25:33;;;;;;;3.95;3.65;;;21.90;54.40;;;;;;4913111;29;20459;-51
2022/06/30 01:28:05;;;;;;;4.80;3.60;;;21.80;54.40;;;;;;4913686;29;20436;-51
2022/06/30 01:30:36;;;;;;;4.63;3.70;;;21.80;54.30;;;;;;4910499;29;20103;-51
2022/06/30 01:33:06;;;;;;;5.20;3.83;;;21.80;54.40;;;;;;4913281;29;20416;-51
2022/06/30 01:35:33;;;;;;;4.93;4.35;;;21.70;54.70;;;;;;4904756;29;20043;-51
2022/06/30 01:38:03;;;;;;;4.97;3.88;;;21.70;54.50;;;;;;4912757;29;20474;-47
2022/06/30 01:40:35;;;;;;;19.25;5.57;;;21.70;54.50;;;;;;4910181;29;20047;-50
2022/06/30 01:43:05;;;;;;;;;;;21.70;54.70;;;;;;4913922;29;20065;-53
2022/06/30 01:45:32;;;;;;;5.72;3.88;;;21.70;53.90;;;;;;4916520;29;19923;-50
2022/06/30 01:47:59;;;;;;;5.10;3.67;;;21.60;54.00;;;;;;4917990;29;20431;-48
2022/06/30 01:50:28;;;;;;;5.28;4.18;;;21.60;54.20;;;;;;4904682;29;20107;-48
2022/06/30 01:52:57;;;;;;;5.03;4.22;;;21.50;54.30;;;;;;4917409;29;20079;-49
2022/06/30 01:55:25;;;;;;;4.93;3.88;;;21.50;54.40;;;;;;4905769;29;20093;-53
2022/06/30 01:57:55;;;;;;;4.55;3.83;;;21.50;54.60;;;;;;4904671;29;20044;-50
2022/06/30 02:00:25;;;;;;;5.35;4.00;;;21.40;54.80;;;;;;4896048;29;21402;-48
2022/06/30 02:02:57;;;;;;;5.95;3.33;;;21.40;55.00;;;;;;4917190;29;20044;-49
2022/06/30 02:05:28;;;;;;;5.95;4.13;;;21.40;55.20;;;;;;4910213;29;20044;-47
2022/06/30 02:08:00;;;;;;;4.97;4.03;;;21.30;55.00;;;;;;4915114;29;20032;-52
2022/06/30 02:10:27;;;;;;;5.03;4.18;;;21.30;54.90;;;;;;4912639;29;20040;-52
2022/06/30 02:12:54;;;;;;;6.28;3.85;;;21.30;55.10;;;;;;4916992;29;20048;-47
2022/06/30 02:15:32;;;;;;;5.50;3.97;;;21.20;55.00;;;;;;4931222;29;20044;-48
2022/06/30 02:18:03;;;;;;;4.38;3.97;;;21.20;55.70;;;;;;4910168;29;20111;-50
2022/06/30 02:20:35;;;;;;;4.32;3.92;;;21.20;55.90;;;;;;4912741;29;20745;-54
2022/06/30 02:23:04;;;;;;;5.13;4.65;;;21.10;55.90;;;;;;4916476;29;20512;-47
2022/06/30 02:25:34;;;;;;;5.07;4.50;;;21.10;56.00;;;;;;4916849;29;20037;-51
2022/06/30 02:28:04;;;;;;;4.88;4.38;;;21.10;56.20;;;;;;4912913;29;20076;-49
2022/06/30 02:30:32;;;;;;;6.38;4.13;;;21.10;56.10;;;;;;4916440;29;20044;-48
2022/06/30 02:32:58;;;;;;;5.28;4.00;;;21.10;56.20;;;;;;4916332;29;20040;-50
2022/06/30 02:35:25;;;;;;;6.55;4.13;;;21.10;56.10;;;;;;4915459;29;20036;-47
2022/06/30 02:37:53;;;;;;;5.35;4.07;;;21.10;56.00;;;;;;4909225;29;20047;-48
2022/06/30 02:40:20;;;;;;;5.13;4.55;;;21.00;55.90;;;;;;4916458;29;20033;-49
2022/06/30 02:42:52;;;;;;;7.57;3.90;;;21.00;55.90;;;;;;4916269;29;20115;-47
2022/06/30 02:45:19;;;;;;;4.90;4.05;;;21.00;55.80;;;;;;4914847;29;20416;-51
2022/06/30 02:47:45;;;;;;;4.07;3.67;;;20.90;55.80;;;;;;4914059;29;20527;-51
2022/06/30 02:50:13;;;;;;;4.78;3.85;;;21.00;55.90;;;;;;4916132;29;20103;-49
2022/06/30 02:52:40;;;;;;;4.38;3.75;;;20.90;55.90;;;;;;4915866;29;20040;-49
2022/06/30 02:55:08;;;;;;;7.35;4.60;;;20.90;56.00;;;;;;4915155;29;20044;-48
2022/06/30 02:57:36;;;;;;;6.10;3.88;;;20.90;56.10;;;;;;4912346;29;20044;-46
2022/06/30 03:00:07;;;;;;;4.20;3.83;;;20.80;56.00;;;;;;4917130;29;20059;-50
2022/06/30 03:02:37;;;;;;;5.28;3.97;;;20.80;56.20;;;;;;4916343;29;20040;-50
2022/06/30 03:05:10;;;;;;;4.30;3.90;;;20.80;56.60;;;;;;4913144;29;20048;-48
2022/06/30 03:07:37;;;;;;;5.75;3.47;;;20.70;55.90;;;;;;4915169;29;20605;-49
2022/06/30 03:10:04;;;;;;;7.18;3.90;;;20.70;56.00;;;;;;4917074;29;20124;-50
2022/06/30 03:12:31;;;;;;;3.95;3.60;;;20.60;56.10;;;;;;4915937;29;20044;-51
2022/06/30 03:14:58;;;;;;;5.75;4.18;;;20.60;56.20;;;;;;4910050;29;20048;-51
2022/06/30 03:17:25;;;;;;;4.50;4.00;;;20.60;56.10;;;;;;4904416;29;20148;-52
2022/06/30 03:19:54;;;;;;;5.53;3.95;;;20.50;56.10;;;;;;4916538;29;20680;-49
2022/06/30 03:22:21;;;;;;;4.53;4.13;;;20.50;56.10;;;;;;4913000;29;20051;-47
2022/06/30 03:24:50;;;;;;;4.75;4.18;;;20.50;56.10;;;;;;4916528;29;20768;-52
2022/06/30 03:27:18;;;;;;;4.68;4.38;;;20.40;56.10;;;;;;4914895;29;20095;-51
2022/06/30 03:29:50;;;;;;;4.55;3.90;;;20.50;56.30;;;;;;4914889;29;20492;-47
2022/06/30 03:32:18;;;;;;;4.50;3.72;;;20.40;56.10;;;;;;4912953;29;20115;-49
2022/06/30 03:34:45;;;;;;;5.07;4.60;;;20.30;56.20;;;;;;4910725;29;20036;-52
2022/06/30 03:37:11;;;;;;;4.25;3.92;;;20.30;56.30;;;;;;4915135;29;20044;-47
2022/06/30 03:39:38;;;;;;;4.57;4.00;;;20.30;56.40;;;;;;4916553;29;20048;-50
2022/06/30 03:42:08;;;;;;;5.30;3.80;;;20.30;56.60;;;;;;4913934;29;20048;-49
2022/06/30 03:44:37;;;;;;;5.35;4.85;;;20.30;56.70;;;;;;4912608;29;20104;-50
2022/06/30 03:47:09;;;;;;;5.03;4.53;;;20.20;56.70;;;;;;4915158;29;20127;-47
2022/06/30 03:49:41;;;;;;;4.20;3.80;;;20.20;56.60;;;;;;4915638;29;20118;-51
2022/06/30 03:52:10;;;;;;;6.85;4.20;;;20.20;56.90;;;;;;4910341;29;20036;-47
2022/06/30 03:54:38;;;;;;;4.68;4.30;;;20.20;56.80;;;;;;4909468;29;20100;-47
2022/06/30 03:57:05;;;;;;;5.72;4.70;;;20.10;56.90;;;;;;4915589;29;20047;-50
2022/06/30 03:59:39;;;;;;;5.35;4.40;;;20.20;57.00;;;;;;4916393;29;20068;-50
2022/06/30 04:02:06;;;;;;;4.20;3.90;;;20.10;57.30;;;;;;4909754;29;20048;-51
2022/06/30 04:04:34;;;;;;;5.43;4.07;;;20.10;57.20;;;;;;4916452;29;20036;-47
2022/06/30 04:07:06;;;;;;;4.32;3.92;;;20.10;57.20;;;;;;4910718;29;20040;-52
2022/06/30 04:09:35;;;;;;;4.78;4.38;;;20.10;57.40;;;;;;4915731;29;20092;-51
2022/06/30 04:12:09;;;;;;;5.22;3.97;;;20.10;57.70;;;;;;4913377;29;20048;-47
2022/06/30 04:14:36;;;;;;;4.95;4.25;;;20.10;57.70;;;;;;4915502;29;20934;-50
2022/06/30 04:17:03;;;;;;;6.35;4.22;;;20.10;57.70;;;;;;4914349;29;20051;-47
2022/06/30 04:19:30;;;;;;;6.00;4.40;;;20.10;57.80;;;;;;4894993;29;20049;-49
2022/06/30 04:21:57;;;;;;;5.35;4.45;;;20.10;58.00;;;;;;4913674;29;20064;-47
2022/06/30 04:24:24;;;;;;;4.60;4.18;;;20.10;58.20;;;;;;4915297;29;20092;-46
2022/06/30 04:26:53;;;;;;;5.82;4.28;;;20.10;58.50;;;;;;4912882;29;20052;-47
2022/06/30 04:29:23;;;;;;;6.63;4.40;;;20.10;58.60;;;;;;4911941;29;20471;-49
2022/06/30 04:34:40;;;;;;;6.68;5.03;;;20.20;58.90;;;;;;4915300;29;20036;-47
2022/06/30 04:37:12;;;;;;;4.97;4.03;;;20.20;59.10;;;;;;4914363;29;20036;-47
2022/06/30 04:39:50;;;;;;;4.75;4.13;;;20.20;59.10;;;;;;4913121;29;20108;-47
2022/06/30 04:42:34;;;;;;;7.18;4.80;;;20.20;59.40;;;;;;4911796;29;20059;-48
2022/06/30 04:45:06;;;;;;;5.57;4.50;;;20.30;59.40;;;;;;4913052;29;20044;-48
2022/06/30 04:47:37;;;;;;;4.82;4.28;;;20.40;59.90;;;;;;4912356;29;20036;-50
2022/06/30 04:50:08;;;;;;;5.20;4.47;;;20.40;59.70;;;;;;4912356;29;20520;-52
2022/06/30 04:52:35;;;;;;;5.13;4.63;;;20.40;59.80;;;;;;4913347;29;20044;-48
2022/06/30 04:55:04;;;;;;;4.55;4.15;;;20.50;60.00;;;;;;4914397;29;20040;-51
2022/06/30 04:57:34;;;;;;;4.78;4.05;;;20.50;60.20;;;;;;4912242;29;20099;-50
2022/06/30 05:00:08;;;;;;;6.22;4.90;;;20.50;60.40;;;;;;4913819;29;20723;-51
2022/06/30 05:02:35;;;;;;;6.07;5.20;;;20.80;60.50;;;;;;4901128;29;20052;-52
2022/06/30 05:05:02;;;;;;;4.90;4.00;;;20.60;60.50;;;;;;4896086;29;20048;-48
2022/06/30 05:07:31;;;;;;;5.28;4.15;;;20.70;60.80;;;;;;4903653;29;20036;-52
2022/06/30 05:10:02;;;;;;;5.22;4.50;;;20.70;60.90;;;;;;4913031;29;20621;-52
2022/06/30 05:12:31;;;;;;;7.45;4.78;;;20.80;61.30;;;;;;4914190;29;20048;-49
2022/06/30 05:15:01;;;;;;;7.22;5.20;;;20.80;61.00;;;;;;4914898;29;20436;-47
2022/06/30 05:17:28;;;;;;;5.75;4.72;;;20.90;61.20;;;;;;4911568;29;20047;-50
2022/06/30 05:19:54;;;;;;;4.65;4.15;;;20.90;61.30;;;;;;4914336;29;20056;-48
2022/06/30 05:22:21;;;;;;;4.90;4.40;;;21.00;61.50;;;;;;4913986;29;20056;-51
2022/06/30 05:27:34;;;;;;;4.22;3.83;;;21.10;61.30;;;;;;4905438;29;20500;-50
2022/06/30 05:30:01;;;;;;;4.32;3.22;;;21.20;61.80;;;;;;4914343;29;20681;-49
2022/06/30 05:32:34;;;;;;;4.55;3.45;;;21.30;61.30;;;;;;4914103;29;20061;-47
2022/06/30 05:35:01;;;;;;;6.75;3.47;;;21.40;61.20;;;;;;4914102;29;20103;-53
2022/06/30 05:37:33;;;;;;;3.55;3.25;;;21.40;60.70;;;;;;4913143;29;20103;-49
2022/06/30 05:40:00;;;;;;;4.05;3.00;;;21.60;60.40;;;;;;4894316;29;20056;-51
2022/06/30 05:42:27;;;;;;;3.58;3.20;;;21.70;60.00;;;;;;4912380;29;20111;-47
2022/06/30 05:44:53;;;;;;;3.90;3.25;;;21.80;59.50;;;;;;4913107;29;20099;-51
2022/06/30 05:47:20;;;;;;;3.97;3.10;;;21.80;59.00;;;;;;4912304;29;20087;-49
2022/06/30 05:49:49;;;;;;;5.50;3.67;;;21.90;58.90;;;;;;4912669;29;20044;-48
2022/06/30 05:52:18;;;;;;;4.65;3.08;;;22.10;58.00;;;;;;4912608;29;20641;-48
2022/06/30 05:54:45;;;;;;;4.82;3.33;;;22.10;57.80;;;;;;4910162;29;20381;-50
2022/06/30 05:57:13;;;;;;;3.50;2.90;;;22.20;57.60;;;;;;4910547;29;20052;-52
2022/06/30 05:59:48;;;;;;;4.93;2.97;;;22.30;57.30;;;;;;4912671;29;20051;-49
2022/06/30 06:02:15;;;;;;;3.65;3.08;;;22.40;57.10;;;;;;4912408;29;20104;-48
2022/06/30 06:04:41;;;;;;;5.63;2.97;;;22.40;56.70;;;;;;4904921;29;20044;-50
2022/06/30 06:07:08;;;;;;;3.53;3.22;;;22.50;56.50;;;;;;4908013;29;20044;-48
2022/06/30 06:09:35;;;;;;;4.20;3.40;;;22.60;56.40;;;;;;4911969;29;20044;-50
2022/06/30 06:12:07;;;;;;;5.60;4.35;;;22.60;56.40;;;;;;4921044;29;20044;-49
2022/06/30 06:14:36;;;;;;;4.38;3.28;;;22.60;56.50;;;;;;4912870;29;20040;-47
2022/06/30 06:17:04;;;;;;;4.95;3.92;;;22.70;56.60;;;;;;4910793;29;20047;-51
2022/06/30 06:19:34;;;;;;;7.30;3.83;;;22.80;56.40;;;;;;4912329;29;20060;-50
2022/06/30 06:22:01;;;;;;;8.27;4.13;;;22.80;56.20;;;;;;4909593;29;20090;-47
2022/06/30 06:24:30;;;;;;;4.45;3.70;;;22.80;56.10;;;;;;4909533;29;20047;-49
2022/06/30 06:26:59;;;;;;;7.43;3.97;;;22.90;56.20;;;;;;4914143;29;20040;-48
2022/06/30 06:29:26;;;;;;;5.88;3.80;;;22.90;56.10;;;;;;4919071;29;20385;-50
2022/06/30 06:31:55;;;;;;;6.45;4.90;;;22.90;55.90;;;;;;4913145;29;20044;-51
2022/06/30 06:34:22;;;;;;;5.20;4.70;;;23.00;55.70;;;;;;4897673;29;20096;-49
2022/06/30 06:36:52;;;;;;;5.05;4.00;;;23.10;56.00;;;;;;4909727;29;20097;-51
2022/06/30 06:39:18;;;;;;;5.97;4.45;;;23.10;56.10;;;;;;4915991;29;20084;-51
2022/06/30 06:41:45;;;;;;;6.25;4.05;;;23.10;55.80;;;;;;4900517;29;20040;-48
2022/06/30 06:44:14;;;;;;;5.03;4.53;;;23.20;55.60;;;;;;4915449;29;20051;-48
2022/06/30 06:46:44;;;;;;;6.10;3.67;;;23.20;55.60;;;;;;4915346;29;20056;-49
2022/06/30 06:49:13;;;;;;;4.13;3.60;;;23.30;55.40;;;;;;4916525;29;20072;-54
2022/06/30 06:51:39;;;;;;;5.13;3.60;;;23.30;54.70;;;;;;4912526;29;20036;-49
2022/06/30 06:54:11;;;;;;;4.72;3.08;;;23.30;54.50;;;;;;4917788;29;20052;-53
2022/06/30 06:56:39;;;;;;;7.22;3.03;;;23.40;54.70;;;;;;4932091;29;20427;-52
2022/06/30 06:59:06;;;;;;;5.10;3.20;;;23.40;54.70;;;;;;4923088;29;20048;-52
2022/06/30 07:01:33;;;;;;;5.07;3.53;;;23.40;54.70;;;;;;4913590;29;20044;-49
2022/06/30 07:03:59;;;;;;;4.78;3.78;;;23.50;55.30;;;;;;4919571;29;20044;-52
2022/06/30 07:06:29;;;;;;;6.03;3.78;;;23.60;55.20;;;;;;4917347;29;20076;-49
2022/06/30 07:08:56;;;;;;;4.38;3.40;;;23.60;55.10;;;;;;4914435;29;20412;-51
2022/06/30 07:11:23;;;;;;;4.18;3.47;;;23.70;54.30;;;;;;4914431;29;20560;-51
2022/06/30 07:13:51;;;;;;;4.60;3.80;;;23.70;54.40;;;;;;4912949;29;20062;-52
2022/06/30 07:16:18;;;;;;;5.97;3.03;;;23.70;54.30;;;;;;4915442;29;20044;-48
2022/06/30 07:18:45;;;;;;;3.67;3.08;;;23.80;54.30;;;;;;4915038;29;20048;-48
2022/06/30 07:21:11;;;;;;;7.57;3.30;;;23.80;54.00;;;;;;4913715;29;20507;-47
2022/06/30 07:23:39;;;;;;;4.40;3.33;;;23.90;53.70;;;;;;4913344;29;20052;-48
2022/06/30 07:26:06;;;;;;;5.32;3.85;;;23.90;53.90;;;;;;4917452;29;20056;-51
2022/06/30 07:28:34;;;;;;;6.40;3.53;;;23.90;53.90;;;;;;4921570;29;20032;-48
2022/06/30 07:31:20;;;;;;;8.05;3.78;;;24.00;53.80;;;;;;4916541;29;20115;-48
2022/06/30 07:33:49;;;;;;;6.00;4.68;;;24.00;54.10;;;;;;4902269;29;20036;-48
2022/06/30 07:36:18;;;;;;;5.78;3.20;;;24.00;53.90;;;;;;4928175;29;20055;-52
2022/06/30 07:38:46;;;;;;;5.38;3.78;;;24.00;54.00;;;;;;4909369;29;20044;-47
2022/06/30 07:41:16;;;;;;;6.80;3.70;;;24.00;54.20;;;;;;4911395;29;20051;-47
2022/06/30 07:43:46;;;;;;;5.93;4.45;;;24.10;54.40;;;;;;4916949;29;20084;-51
2022/06/30 07:46:15;;;;;;;5.82;4.85;;;24.10;55.00;;;;;;4912249;29;20060;-48
2022/06/30 07:48:46;;;;;;;5.50;4.28;;;24.20;54.50;;;;;;4911738;29;20072;-48
2022/06/30 07:51:14;;;;;;;7.05;4.85;;;24.30;54.20;;;;;;4938446;23;20048;-49
2022/06/30 07:53:43;;;;;;;8.20;5.32;;;24.40;54.10;;;;;;4916662;29;20464;-51
2022/06/30 07:56:10;;;;;;;7.82;5.68;;;24.30;54.20;;;;;;4913413;29;20052;-48
2022/06/30 07:58:39;;;;;;;7.70;6.35;;;24.30;54.30;;;;;;4913479;29;20091;-46
2022/06/30 08:01:08;;;;;;;9.65;7.63;;;24.30;54.10;;;;;;4906645;29;20048;-50
2022/06/30 08:03:50;;;;;;;10.50;7.65;;;24.30;54.30;;;;;;4897041;29;20512;-50
2022/06/30 08:06:22;;;;;;;10.27;7.47;;;24.40;54.70;;;;;;4903527;29;20500;-48
2022/06/30 08:08:49;;;;;;;9.75;6.90;;;24.40;54.80;;;;;;4908452;29;20048;-49
2022/06/30 08:11:18;;;;;;;8.43;6.35;;;24.50;55.20;;;;;;4888638;29;20493;-48
2022/06/30 08:13:44;;;;;;;7.65;6.45;;;24.50;54.90;;;;;;4895943;29;20563;-49
2022/06/30 08:16:20;;;;;;;10.75;6.95;;;24.50;54.60;;;;;;4901372;29;20374;-50
2022/06/30 08:18:47;;;;;;;8.13;6.97;;;24.50;54.50;;;;;;4900790;29;20135;-49
2022/06/30 08:21:14;;;;;;;10.70;7.15;;;24.60;54.50;;;;;;4907875;29;20055;-51
2022/06/30 08:23:45;;;;;;;7.38;6.57;;;24.60;54.40;;;;;;4895446;29;20412;-51
2022/06/30 08:26:14;;;;;;;11.73;6.50;;;24.70;54.00;;;;;;4902574;29;20104;-51
2022/06/30 08:28:44;;;;;;;8.35;6.78;;;24.70;53.80;;;;;;4908129;29;20051;-51
2022/06/30 08:31:15;;;;;;;9.25;6.55;;;24.80;53.30;;;;;;4915469;29;20382;-49
2022/06/30 08:33:42;;;;;;;10.80;6.68;;;24.80;53.50;;;;;;4906342;29;20574;-50
2022/06/30 08:36:09;;;;;;;11.02;7.75;;;24.80;53.80;;;;;;4899242;29;20096;-47
2022/06/30 08:38:38;;;;;;;7.38;6.65;;;24.90;53.70;;;;;;4908193;29;20496;-51
2022/06/30 08:43:51;;;;;;;12.60;7.40;;;24.90;53.90;;;;;;4904669;29;20074;-53
2022/06/30 08:46:26;;;;;;;9.88;7.10;;;24.90;53.70;;;;;;4893814;29;20044;-50
2022/06/30 08:48:54;;;;;;;8.90;6.90;;;25.00;53.80;;;;;;4906896;29;20132;-50
2022/06/30 08:51:21;;;;;;;10.07;7.78;;;25.00;53.90;;;;;;4906996;29;20104;-52
2022/06/30 08:54:03;;;;;;;7.65;6.35;;;25.00;54.00;;;;;;4897004;29;20496;-48
2022/06/30 08:56:34;;;;;;;8.20;6.72;;;25.10;54.40;;;;;;4900639;29;20043;-51
2022/06/30 08:59:05;;;;;;;7.63;5.85;;;25.10;54.20;;;;;;4896688;29;20060;-51
2022/06/30 09:01:33;;;;;;;6.90;4.93;;;25.20;54.10;;;;;;4892169;29;20041;-50
2022/06/30 09:04:00;;;;;;;4.88;3.85;;;25.20;53.20;;;;;;4910208;29;20080;-50
2022/06/30 09:06:29;;;;;;;5.93;4.28;;;25.20;53.50;;;;;;4908523;29;20048;-48
2022/06/30 09:09:06;;;;;;;6.00;4.60;;;25.40;52.80;;;;;;4915442;29;20048;-51
2022/06/30 09:11:53;;;;;;;9.55;5.03;;;25.40;52.50;;;;;;4889610;29;20489;-51
2022/06/30 09:14:37;;;;;;;6.60;4.72;;;25.40;52.50;;;;;;4909402;29;20081;-51
2022/06/30 09:17:15;;;;;;;4.50;4.10;;;25.50;52.60;;;;;;4913200;29;20460;-51
2022/06/30 09:20:00;;;;;;;5.68;3.90;;;25.50;52.00;;;;;;4900714;29;20504;-52
2022/06/30 09:22:34;;;;;;;7.32;5.00;;;25.60;51.90;;;;;;4898653;29;20040;-52
2022/06/30 09:25:11;;;;;;;6.20;5.03;;;25.60;51.80;;;;;;4894792;29;20037;-50
2022/06/30 09:27:43;;;;;;;5.70;4.97;;;25.70;52.10;;;;;;4902755;29;20101;-51
2022/06/30 09:30:12;;;;;;;5.85;4.07;;;25.70;52.00;;;;;;4904448;29;20041;-50
2022/06/30 09:32:48;;;;;;;8.38;4.05;;;25.80;51.50;;;;;;4901048;29;20067;-51
2022/06/30 09:35:18;;;;;;;3.67;3.28;;;25.80;51.10;;;;;;4901550;29;20123;-50
2022/06/30 09:38:10;;;;;;;6.70;4.07;;;25.80;50.60;;;;;;4894382;29;20076;-51
2022/06/30 09:41:00;;;;;;;6.75;4.53;;;25.90;50.70;;;;;;4902231;29;20076;-51
2022/06/30 09:43:42;;;;;;;5.82;4.50;;;25.90;51.10;;;;;;4893435;29;20444;-51
2022/06/30 09:46:16;;;;;;;10.63;5.10;;;25.90;51.40;;;;;;4900505;29;20075;-52
2022/06/30 09:48:43;;;;;;;5.90;4.50;;;26.00;51.10;;;;;;4899859;29;20045;-51
2022/06/30 09:51:10;;;;;;;6.68;4.53;;;26.00;51.40;;;;;;4898114;29;20444;-50
2022/06/30 09:53:36;;;;;;;7.75;4.00;;;26.10;51.20;;;;;;4907179;29;20048;-51
2022/06/30 09:56:17;;;;;;;6.13;3.88;;;26.10;51.50;;;;;;4890599;29;20063;-51
2022/06/30 09:58:44;;;;;;;8.43;5.43;;;26.20;50.70;;;;;;4896705;29;20036;-53
2022/06/30 10:01:11;;;;;;;7.20;5.28;;;26.20;51.30;;;;;;4903986;29;20045;-50
2022/06/30 10:03:59;;;;;;;5.55;4.32;;;26.30;50.80;;;;;;4901269;29;20049;-50
2022/06/30 10:06:29;;;;;;;5.05;3.80;;;26.40;50.40;;;;;;4905583;29;20083;-51
2022/06/30 10:08:56;;;;;;;6.72;3.60;;;26.40;49.90;;;;;;4899592;29;20100;-51
2022/06/30 10:11:24;;;;;;;6.93;3.90;;;26.50;49.60;;;;;;4905956;29;20497;-51
2022/06/30 10:13:51;;;;;;;5.50;3.50;;;26.50;49.60;;;;;;4897709;29;20052;-50
2022/06/30 10:16:21;;;;;;;6.80;3.97;;;26.50;49.20;;;;;;4895433;29;20512;-53
2022/06/30 10:18:49;;;;;;;4.20;3.80;;;26.60;49.50;;;;;;4895022;29;20056;-52
2022/06/30 10:21:17;;;;;;;5.25;4.25;;;26.60;50.10;;;;;;4907806;29;20158;-51
2022/06/30 10:23:47;;;;;;;3.88;3.22;;;26.70;50.10;;;;;;4917091;29;20468;-51
2022/06/30 10:27:12;;;;;;;3.55;2.83;;;26.80;49.70;;;;;;4893314;29;20116;-51
2022/06/30 10:29:00;;;;;;;4.15;2.83;;;26.90;48.30;;;;;;4908430;29;20519;-50
2022/06/30 10:31:55;;;;;;;;;;;27.00;48.10;;;;;;4911030;29;20119;-53
2022/06/30 10:34:32;;;;;;;3.63;2.53;;;27.10;48.50;;;;;;4907588;29;19923;-51
2022/06/30 10:37:08;;;;;;;3.03;2.42;;;27.30;47.00;;;;;;4908727;29;20064;-51
2022/06/30 10:39:50;;;;;;;3.67;2.70;;;27.40;47.50;;;;;;4909774;29;20098;-54
2022/06/30 10:42:41;;;;;;;6.03;2.65;;;27.60;47.20;;;;;;4881307;29;20036;-50
2022/06/30 10:45:27;;;;;;;5.82;2.97;;;27.70;47.30;;;;;;4905233;29;20096;-53
2022/06/30 10:48:04;;;;;;;7.80;3.72;;;27.80;46.90;;;;;;4905491;29;20036;-50
2022/06/30 10:50:33;;;;;;;5.10;3.17;;;27.90;47.70;;;;;;4910640;29;20131;-52
2022/06/30 10:53:04;;;;;;;2.97;2.58;;;27.90;47.40;;;;;;4909979;29;20664;-50
2022/06/30 10:55:53;;;;;;;5.57;2.63;;;28.00;47.80;;;;;;4901603;29;20733;-53
2022/06/30 10:58:21;;;;;;;3.60;3.30;;;28.00;47.10;;;;;;4901300;29;20131;-48
2022/06/30 11:00:58;;;;;;;5.00;3.20;;;28.00;47.10;;;;;;4914825;29;20127;-54
2022/06/30 11:03:34;;;;;;;3.45;3.13;;;28.10;46.50;;;;;;4899100;29;20069;-52
2022/06/30 11:06:09;;;;;;;4.60;3.08;;;28.20;46.40;;;;;;4898131;29;20049;-50
2022/06/30 11:08:36;;;;;;;6.53;2.80;;;28.20;47.20;;;;;;4899651;29;20048;-53
2022/06/30 11:11:22;;;;;;;6.07;3.53;;;28.20;46.60;;;;;;4890906;29;20498;-50
2022/06/30 11:14:01;;;;;;;4.07;3.13;;;28.20;46.40;;;;;;4898445;29;20119;-52
2022/06/30 11:16:31;;;;;;;5.60;3.78;;;28.30;46.60;;;;;;4897704;29;20043;-53
2022/06/30 11:18:59;;;;;;;3.58;2.67;;;28.30;47.40;;;;;;4905561;29;20064;-47
2022/06/30 11:21:29;;;;;;;4.55;3.30;;;28.30;46.70;;;;;;4894305;29;20045;-48
2022/06/30 11:24:00;;;;;;;4.47;3.00;;;28.40;45.90;;;;;;4898296;29;20040;-50
2022/06/30 11:29:18;;;;;;;3.08;2.58;;;28.40;45.80;;;;;;4896916;29;20054;-51
2022/06/30 11:31:46;;;;;;;6.03;3.60;;;28.50;45.70;;;;;;4898737;29;20548;-51
2022/06/30 11:34:22;;;;;;;4.05;2.80;;;28.50;45.20;;;;;;4908342;29;20048;-52
2022/06/30 11:36:54;;;;;;;6.20;2.58;;;28.50;44.80;;;;;;4897508;29;20564;-52
2022/06/30 11:39:21;;;;;;;5.22;3.45;;;28.60;44.60;;;;;;4896453;29;20045;-52
2022/06/30 11:42:06;;;;;;;6.80;3.55;;;28.60;45.00;;;;;;4893788;29;20533;-48
2022/06/30 11:44:38;;;;;;;;;;;28.60;45.80;;;;;;4902331;29;20505;-53
2022/06/30 11:47:12;;;;;;;5.82;3.03;;;28.70;46.00;;;;;;4898770;29;19927;-50
2022/06/30 11:49:41;;;;;;;5.78;2.92;;;28.80;45.60;;;;;;4880006;29;20126;-50
2022/06/30 11:52:20;;;;;;;4.45;3.42;;;28.80;45.80;;;;;;4909411;29;20077;-49
2022/06/30 11:54:50;;;;;;;4.85;3.30;;;28.90;45.60;;;;;;4906809;29;20048;-51
2022/06/30 11:57:18;;;;;;;2.78;2.22;;;28.90;45.30;;;;;;4876962;29;20486;-52
2022/06/30 12:00:00;;;;;;;4.45;3.00;;;29.00;45.00;;;;;;4887771;29;20516;-53
2022/06/30 12:02:27;;;;;;;3.25;2.25;;;29.10;44.60;;;;;;4893814;29;20044;-51
2022/06/30 12:05:00;;;;;;;4.28;2.35;;;29.20;44.20;;;;;;4885923;29;20532;-52
2022/06/30 12:07:34;;;;;;;3.70;1.92;;;29.20;44.20;;;;;;4901386;29;20044;-49
2022/06/30 12:10:04;;;;;;;4.88;2.58;;;29.30;44.40;;;;;;4889610;29;20096;-52
2022/06/30 12:12:33;;;;;;;4.63;2.95;;;29.30;43.90;;;;;;4897784;29;20101;-52
2022/06/30 12:15:04;;;;;;;6.65;2.30;;;29.40;44.10;;;;;;4906781;29;20044;-53
2022/06/30 12:17:35;;;;;;;3.42;2.35;;;29.50;43.90;;;;;;4897219;29;20045;-53
2022/06/30 12:20:04;;;;;;;4.63;2.30;;;29.60;43.80;;;;;;4897685;29;20057;-51
2022/06/30 12:22:32;;;;;;;2.65;2.00;;;29.70;43.00;;;;;;4894601;29;20103;-50
2022/06/30 12:25:00;;;;;;;5.78;1.88;;;29.70;42.50;;;;;;4899406;29;20052;-53
2022/06/30 12:27:32;;;;;;;4.47;2.58;;;29.80;42.00;;;;;;4893254;29;20107;-53
2022/06/30 12:30:16;;;;;;;5.45;2.08;;;29.90;41.60;;;;;;4905687;29;20044;-52
2022/06/30 12:32:55;;;;;;;3.70;2.20;;;30.00;41.40;;;;;;4914371;29;20055;-50
2022/06/30 12:35:30;;;;;;;4.60;2.33;;;30.20;42.30;;;;;;4915731;29;20040;-51
2022/06/30 12:38:09;;;;;;;3.03;1.83;;;30.30;42.30;;;;;;4889758;29;20045;-53
2022/06/30 12:40:40;;;;;;;11.68;3.33;;;30.50;42.60;;;;;;4908223;29;20044;-53
2022/06/30 12:43:13;;;;;;;3.42;2.22;;;30.60;41.90;;;;;;4913679;29;20051;-51
2022/06/30 12:45:55;;;;;;;4.85;2.53;;;30.70;41.60;;;;;;4907391;29;20459;-53
2022/06/30 12:48:58;;;;;;;4.38;1.60;;;30.80;41.40;;;;;;4903822;29;20048;-51
2022/06/30 12:51:30;;;;;;;1.58;1.30;;;31.00;41.80;;;;;;4855777;29;20045;-51
2022/06/30 12:54:13;;;;;;;5.10;2.30;;;31.10;41.40;;;;;;4889530;29;20421;-53
2022/06/30 12:56:50;;;;;;;3.08;2.30;;;31.30;40.00;;;;;;4891919;29;20044;-53
2022/06/30 12:59:19;;;;;;;4.22;2.67;;;31.50;40.00;;;;;;4910914;29;20040;-52
2022/06/30 13:02:02;;;;;;;2.90;2.03;;;31.70;39.80;;;;;;4902321;29;20100;-52
2022/06/30 13:04:32;;;;;;;5.32;1.73;;;31.90;39.50;;;;;;4897376;29;20130;-52
2022/06/30 13:06:59;;;;;;;2.45;2.00;;;32.10;39.40;;;;;;4905687;29;20051;-52
2022/06/30 13:09:34;;;;;;;4.10;2.42;;;32.20;39.00;;;;;;4889642;29;20040;-52
2022/06/30 13:12:02;;;;;;;5.80;1.85;;;32.30;38.70;;;;;;4893845;29;20120;-52
2022/06/30 13:14:32;;;;;;;5.03;2.05;;;32.30;38.70;;;;;;4902289;29;20075;-53
2022/06/30 13:17:01;;;;;;;5.13;2.17;;;32.40;38.90;;;;;;4900193;29;20048;-52
2022/06/30 13:19:34;;;;;;;2.28;1.70;;;32.50;38.60;;;;;;4902129;29;20040;-51